Time;durP1;ratioP1;P1;durP2;ratioP2;P2;SDS_P1;SDS_P2;PMS_P1;PMS_P2;Temp;Humidity;BMP_temperature;BMP_pressure;BME280_temperature;BME280_humidity;BME280_pressure;Samples;Min_cycle;Max_cycle;Signal;HPM_P1;HPM_P2
2021/09/30 00:32:57;;;;;;;13.10;5.87;;;;;;;;;;4151591;34;20118;-69
2021/09/30 00:46:13;;;;;;;16.48;9.52;;;;;;;;;;4150120;34;20122;-69
2021/09/30 00:48:52;;;;;;;11.77;8.48;;;;;;;;;;4139202;34;20118;-70
2021/09/30 00:51:25;;;;;;;13.82;8.30;;;;;;;;;;4151431;34;20106;-70
2021/09/30 01:52:34;;;;;;;17.48;6.93;;;;;;;;;;4151001;34;20460;-71
2021/09/30 02:22:43;;;;;;;10.18;5.55;;;;;;;;;;4149162;34;20166;-73
2021/09/30 02:30:52;;;;;;;16.90;6.68;;;;;;;;;;4148986;34;20107;-74
2021/09/30 03:00:34;;;;;;;24.05;13.43;;;;;;;;;;4135749;34;20187;-75
2021/09/30 03:03:00;;;;;;;24.20;13.45;;;;;;;;;;4124358;34;20203;-73
2021/09/30 03:05:26;;;;;;;29.33;12.68;;;;;;;;;;4135439;34;20208;-71
2021/09/30 03:07:53;;;;;;;23.48;12.15;;;;;;;;;;4124247;34;20179;-71
2021/09/30 03:10:23;;;;;;;22.52;13.00;;;;;;;;;;4124287;34;20107;-70
2021/09/30 03:12:50;;;;;;;25.88;9.07;;;;;;;;;;4122630;34;20540;-70
2021/09/30 03:17:54;;;;;;;15.60;7.40;;;;;;;;;;4135937;34;20191;-70
2021/09/30 03:23:21;;;;;;;27.00;7.95;;;;;;;;;;4135432;34;20111;-70
2021/09/30 03:25:49;;;;;;;17.27;6.82;;;;;;;;;;4136656;34;20539;-69
2021/09/30 03:28:19;;;;;;;14.87;5.62;;;;;;;;;;4135281;34;20099;-69
2021/09/30 03:30:45;;;;;;;17.25;6.62;;;;;;;;;;4123594;34;20464;-69
2021/09/30 03:33:11;;;;;;;22.23;6.03;;;;;;;;;;4123774;34;20500;-71
2021/09/30 03:35:38;;;;;;;24.30;8.30;;;;;;;;;;4146100;34;20099;-69
2021/09/30 03:38:05;;;;;;;24.52;8.15;;;;;;;;;;4136370;34;20192;-69
2021/09/30 03:40:30;;;;;;;26.25;7.87;;;;;;;;;;4143960;34;20103;-69
2021/09/30 03:42:56;;;;;;;47.53;8.77;;;;;;;;;;4149674;34;20119;-69
2021/09/30 03:45:22;;;;;;;41.80;8.40;;;;;;;;;;4148372;34;20114;-69
2021/09/30 03:47:48;;;;;;;28.62;8.60;;;;;;;;;;4153469;34;20527;-69
2021/09/30 03:50:26;;;;;;;57.58;12.77;;;;;;;;;;4154146;34;20445;-69
2021/09/30 03:53:02;;;;;;;33.28;8.65;;;;;;;;;;4152892;34;20182;-68
2021/09/30 04:00:39;;;;;;;29.00;7.43;;;;;;;;;;4154278;34;20135;-66
2021/09/30 04:03:05;;;;;;;45.55;7.87;;;;;;;;;;4154097;34;20107;-66
2021/09/30 04:05:31;;;;;;;31.75;8.63;;;;;;;;;;4153967;34;20117;-65
2021/09/30 04:07:57;;;;;;;36.63;8.27;;;;;;;;;;4152568;34;20107;-65
2021/09/30 04:10:23;;;;;;;68.70;10.95;;;;;;;;;;4153836;34;20211;-65
2021/09/30 04:12:49;;;;;;;33.83;7.35;;;;;;;;;;4152264;34;20135;-66
2021/09/30 04:15:15;;;;;;;43.63;8.68;;;;;;;;;;4153734;34;20223;-67
2021/09/30 04:17:41;;;;;;;50.35;9.40;;;;;;;;;;4153853;34;20495;-64
2021/09/30 04:20:07;;;;;;;48.95;9.07;;;;;;;;;;4152340;34;20122;-65
2021/09/30 04:22:33;;;;;;;38.65;9.27;;;;;;;;;;4153598;34;20143;-65
2021/09/30 04:24:59;;;;;;;41.33;10.05;;;;;;;;;;4153723;34;20535;-65
2021/09/30 04:27:25;;;;;;;47.72;11.05;;;;;;;;;;4152277;34;20103;-64
2021/09/30 04:29:51;;;;;;;48.90;11.93;;;;;;;;;;4153673;34;20107;-65
2021/09/30 04:32:17;;;;;;;56.35;14.15;;;;;;;;;;4153482;34;20607;-65
2021/09/30 04:34:43;;;;;;;53.75;15.27;;;;;;;;;;4153432;34;20459;-65
2021/09/30 04:37:08;;;;;;;62.17;15.95;;;;;;;;;;4152155;34;20129;-65
2021/09/30 04:39:35;;;;;;;56.47;13.48;;;;;;;;;;4153379;34;20134;-65
2021/09/30 04:42:02;;;;;;;72.15;16.55;;;;;;;;;;4153690;34;20126;-65
2021/09/30 04:44:28;;;;;;;48.22;11.18;;;;;;;;;;4153469;34;20134;-65
2021/09/30 04:46:54;;;;;;;53.13;12.68;;;;;;;;;;4151845;34;20103;-65
2021/09/30 04:49:20;;;;;;;63.78;14.55;;;;;;;;;;4152026;34;20183;-65
2021/09/30 04:51:46;;;;;;;59.97;12.88;;;;;;;;;;4153460;34;20200;-64
2021/09/30 04:54:11;;;;;;;52.20;10.95;;;;;;;;;;4153606;34;20444;-64
2021/09/30 04:56:37;;;;;;;43.10;8.55;;;;;;;;;;4153202;34;20127;-64
2021/09/30 04:59:04;;;;;;;22.87;6.93;;;;;;;;;;4150033;34;20113;-64
2021/09/30 05:01:30;;;;;;;18.73;6.82;;;;;;;;;;4151039;34;20216;-66
2021/09/30 05:03:56;;;;;;;18.95;5.87;;;;;;;;;;4151200;34;20095;-67
2021/09/30 05:06:22;;;;;;;22.95;6.25;;;;;;;;;;4151146;34;20122;-67
2021/09/30 05:08:56;;;;;;;14.68;5.60;;;;;;;;;;4150862;34;20141;-67
2021/09/30 05:11:23;;;;;;;21.00;6.87;;;;;;;;;;4149699;34;20477;-67
2021/09/30 05:13:53;;;;;;;13.88;5.72;;;;;;;;;;4150815;34;20122;-68
2021/09/30 05:16:19;;;;;;;14.68;4.82;;;;;;;;;;4150776;34;20130;-67
2021/09/30 05:18:47;;;;;;;7.65;4.87;;;;;;;;;;4149238;34;20123;-67
2021/09/30 05:21:14;;;;;;;10.82;5.15;;;;;;;;;;4138473;34;20112;-69
2021/09/30 05:23:39;;;;;;;18.27;5.47;;;;;;;;;;4151085;34;20095;-66
2021/09/30 05:26:06;;;;;;;12.20;5.65;;;;;;;;;;4150716;34;20611;-70
2021/09/30 05:28:32;;;;;;;11.43;6.10;;;;;;;;;;4150718;34;20103;-68
2021/09/30 05:30:58;;;;;;;14.40;6.75;;;;;;;;;;4151076;34;20504;-67
2021/09/30 05:33:24;;;;;;;11.45;5.47;;;;;;;;;;4150895;34;20123;-67
2021/09/30 05:35:50;;;;;;;17.52;5.35;;;;;;;;;;4150731;34;20272;-67
2021/09/30 05:38:16;;;;;;;14.00;5.55;;;;;;;;;;4150822;34;20215;-67
2021/09/30 05:40:42;;;;;;;10.57;4.75;;;;;;;;;;4150568;34;20103;-69
2021/09/30 05:43:14;;;;;;;9.27;5.75;;;;;;;;;;4149009;34;20150;-69
2021/09/30 05:45:43;;;;;;;10.00;5.20;;;;;;;;;;4150564;34;20114;-66
2021/09/30 05:48:10;;;;;;;10.98;5.35;;;;;;;;;;4138254;34;20222;-67
2021/09/30 05:50:36;;;;;;;14.15;5.82;;;;;;;;;;4150601;34;20100;-68
2021/09/30 05:53:03;;;;;;;11.12;6.00;;;;;;;;;;4138350;34;20580;-67
2021/09/30 05:55:29;;;;;;;10.85;6.30;;;;;;;;;;4149272;34;20121;-66
2021/09/30 05:57:55;;;;;;;12.00;6.72;;;;;;;;;;4150604;34;20318;-66
2021/09/30 06:00:31;;;;;;;9.77;5.50;;;;;;;;;;4150434;34;20556;-66
2021/09/30 06:11:59;;;;;;;8.38;3.12;;;;;;;;;;4148791;34;20210;-66
2021/09/30 06:14:05;;;;;;;6.45;4.32;;;;;;;;;;4144344;34;20194;-66
2021/09/30 06:16:35;;;;;;;6.00;3.20;;;;;;;;;;4150331;34;20095;-66
2021/09/30 06:19:02;;;;;;;6.12;3.55;;;;;;;;;;4150176;34;20115;-66
2021/09/30 06:21:28;;;;;;;4.45;3.35;;;;;;;;;;4150204;34;20123;-66
2021/09/30 06:23:54;;;;;;;6.37;3.10;;;;;;;;;;4137605;34;20106;-67
2021/09/30 06:26:20;;;;;;;5.60;2.97;;;;;;;;;;4150215;34;20112;-66
2021/09/30 06:28:45;;;;;;;3.40;2.78;;;;;;;;;;4150213;34;20268;-66
2021/09/30 06:31:12;;;;;;;3.25;2.78;;;;;;;;;;4150401;34;20199;-66
2021/09/30 06:33:38;;;;;;;4.57;3.17;;;;;;;;;;4148921;34;20134;-67
2021/09/30 06:36:03;;;;;;;4.00;3.28;;;;;;;;;;4149956;34;20111;-67
2021/09/30 06:38:30;;;;;;;4.32;2.90;;;;;;;;;;4150217;34;20476;-66
2021/09/30 06:40:56;;;;;;;3.30;2.80;;;;;;;;;;4148894;34;20125;-67
2021/09/30 06:43:22;;;;;;;3.20;2.60;;;;;;;;;;4148877;34;20550;-66
2021/09/30 06:45:50;;;;;;;3.75;2.95;;;;;;;;;;4150049;34;20129;-66
2021/09/30 06:48:16;;;;;;;4.22;3.30;;;;;;;;;;4148955;34;20190;-67
2021/09/30 06:50:41;;;;;;;3.17;2.80;;;;;;;;;;4150377;34;20111;-66
2021/09/30 06:53:08;;;;;;;2.97;2.55;;;;;;;;;;4148694;34;20111;-66
2021/09/30 06:55:34;;;;;;;3.15;2.45;;;;;;;;;;4137704;34;20110;-66
2021/09/30 06:58:00;;;;;;;5.10;2.70;;;;;;;;;;4148855;34;20092;-66
2021/09/30 07:00:27;;;;;;;3.47;2.53;;;;;;;;;;4150148;34;20188;-66
2021/09/30 07:02:53;;;;;;;3.75;2.90;;;;;;;;;;4137418;34;20126;-67
2021/09/30 07:05:20;;;;;;;3.12;2.53;;;;;;;;;;4137692;34;20115;-66
2021/09/30 07:07:46;;;;;;;3.72;2.60;;;;;;;;;;4148479;34;20125;-66
2021/09/30 07:10:12;;;;;;;3.20;2.80;;;;;;;;;;4148550;34;20616;-66
2021/09/30 07:12:38;;;;;;;3.25;2.60;;;;;;;;;;4148249;34;20620;-66
2021/09/30 07:15:05;;;;;;;3.00;2.70;;;;;;;;;;4149747;34;20101;-67
2021/09/30 07:17:31;;;;;;;7.07;3.70;;;;;;;;;;4149642;34;20527;-66
2021/09/30 07:19:58;;;;;;;4.03;2.90;;;;;;;;;;4149807;34;20187;-66
2021/09/30 07:22:24;;;;;;;5.53;2.90;;;;;;;;;;4149078;34;20627;-66
2021/09/30 07:24:50;;;;;;;3.53;2.67;;;;;;;;;;4137077;34;20138;-66
2021/09/30 07:27:16;;;;;;;2.90;2.37;;;;;;;;;;4148233;34;20138;-66
2021/09/30 07:29:42;;;;;;;2.92;2.30;;;;;;;;;;4148469;34;20126;-66
2021/09/30 07:32:08;;;;;;;2.90;2.60;;;;;;;;;;4148236;34;20119;-66
2021/09/30 07:34:34;;;;;;;4.22;2.50;;;;;;;;;;4149872;34;20126;-66
2021/09/30 07:37:00;;;;;;;3.17;2.45;;;;;;;;;;4149699;34;20254;-66
2021/09/30 07:39:28;;;;;;;3.58;2.70;;;;;;;;;;4148290;34;20527;-66
2021/09/30 07:41:54;;;;;;;4.07;3.33;;;;;;;;;;4149584;34;20275;-67
2021/09/30 07:44:20;;;;;;;8.32;2.95;;;;;;;;;;4149494;34;20131;-66
2021/09/30 07:46:46;;;;;;;3.03;2.70;;;;;;;;;;4136994;34;20143;-66
2021/09/30 07:49:12;;;;;;;6.50;2.92;;;;;;;;;;4149813;34;20118;-66
2021/09/30 07:51:38;;;;;;;3.12;2.58;;;;;;;;;;4149349;34;20110;-66
2021/09/30 07:54:05;;;;;;;3.05;2.62;;;;;;;;;;4149435;34;20099;-66
2021/09/30 07:56:31;;;;;;;6.25;3.12;;;;;;;;;;4147990;34;20087;-66
2021/09/30 07:58:57;;;;;;;3.67;2.85;;;;;;;;;;4148268;34;20130;-67
2021/09/30 08:01:23;;;;;;;4.53;3.00;;;;;;;;;;4147942;34;20138;-66
2021/09/30 08:03:50;;;;;;;4.87;3.28;;;;;;;;;;4149217;34;20201;-66
2021/09/30 08:06:16;;;;;;;3.42;2.87;;;;;;;;;;4149514;34;20096;-66
2021/09/30 08:08:42;;;;;;;4.95;2.55;;;;;;;;;;4147861;34;20090;-66
2021/09/30 08:11:08;;;;;;;3.08;2.78;;;;;;;;;;4149258;34;20191;-66
2021/09/30 08:13:34;;;;;;;3.60;3.25;;;;;;;;;;4149140;34;20106;-66
2021/09/30 08:16:10;;;;;;;4.25;3.25;;;;;;;;;;4148015;34;20107;-65
2021/09/30 08:18:37;;;;;;;6.32;3.83;;;;;;;;;;4147683;34;20126;-66
2021/09/30 08:21:03;;;;;;;3.58;3.20;;;;;;;;;;4149141;34;20119;-67
2021/09/30 08:23:29;;;;;;;6.12;2.75;;;;;;;;;;4149081;34;20632;-65
2021/09/30 08:25:55;;;;;;;3.65;2.92;;;;;;;;;;4147810;34;20135;-67
2021/09/30 08:28:21;;;;;;;5.53;3.42;;;;;;;;;;4149267;34;20208;-68
2021/09/30 08:30:50;;;;;;;5.35;3.28;;;;;;;;;;4149072;34;20118;-67
2021/09/30 08:33:16;;;;;;;3.58;3.03;;;;;;;;;;4150186;34;20094;-67
2021/09/30 08:35:42;;;;;;;4.50;2.97;;;;;;;;;;4151094;34;20110;-68
2021/09/30 08:38:08;;;;;;;3.85;3.45;;;;;;;;;;4150992;34;20138;-68
2021/09/30 08:40:34;;;;;;;3.83;3.20;;;;;;;;;;4151173;34;20174;-66
2021/09/30 08:43:00;;;;;;;5.62;3.17;;;;;;;;;;4149926;34;20154;-65
2021/09/30 08:45:26;;;;;;;4.07;3.17;;;;;;;;;;4151528;34;20287;-66
2021/09/30 08:48:00;;;;;;;4.03;3.42;;;;;;;;;;4149688;34;20106;-66
2021/09/30 08:50:29;;;;;;;4.00;3.50;;;;;;;;;;4151443;34;20130;-66
2021/09/30 08:52:56;;;;;;;4.80;3.15;;;;;;;;;;4149461;34;20207;-67
2021/09/30 08:55:22;;;;;;;3.50;2.60;;;;;;;;;;4151342;34;20127;-63
2021/09/30 08:57:49;;;;;;;3.22;2.60;;;;;;;;;;4150965;34;20627;-70
2021/09/30 09:00:16;;;;;;;4.55;3.17;;;;;;;;;;4151203;34;20095;-73
2021/09/30 09:02:46;;;;;;;3.83;3.10;;;;;;;;;;4149729;34;20118;-71
2021/09/30 09:05:12;;;;;;;5.65;3.20;;;;;;;;;;4149710;34;20207;-73
2021/09/30 09:07:38;;;;;;;4.60;3.50;;;;;;;;;;4149632;34;20131;-72
2021/09/30 09:10:06;;;;;;;3.67;3.15;;;;;;;;;;4151000;34;20102;-71
2021/09/30 09:12:33;;;;;;;3.20;2.90;;;;;;;;;;4149470;34;20114;-71
2021/09/30 09:14:59;;;;;;;4.72;2.72;;;;;;;;;;4149607;34;20127;-71
2021/09/30 09:17:25;;;;;;;3.65;2.53;;;;;;;;;;4149611;34;20138;-71
2021/09/30 09:19:56;;;;;;;4.97;2.78;;;;;;;;;;4150866;34;20577;-70
2021/09/30 09:22:32;;;;;;;3.47;3.10;;;;;;;;;;4138508;34;20530;-71
2021/09/30 09:25:08;;;;;;;3.03;2.33;;;;;;;;;;4150882;34;20127;-72
2021/09/30 09:28:04;;;;;;;5.32;2.83;;;;;;;;;;4151083;34;20468;-71
2021/09/30 09:30:45;;;;;;;2.90;2.60;;;;;;;;;;4150927;34;20182;-70
2021/09/30 09:33:16;;;;;;;3.78;2.40;;;;;;;;;;4150615;34;20114;-72
2021/09/30 09:35:53;;;;;;;3.83;2.67;;;;;;;;;;4150811;34;20115;-72
2021/09/30 09:38:21;;;;;;;4.22;2.83;;;;;;;;;;4150849;34;20095;-72
2021/09/30 09:40:47;;;;;;;3.17;2.50;;;;;;;;;;4150696;34;20226;-71
2021/09/30 09:43:46;;;;;;;3.47;2.50;;;;;;;;;;4149230;34;20612;-71
2021/09/30 09:46:14;;;;;;;3.20;2.70;;;;;;;;;;4112455;34;20601;-71
2021/09/30 09:48:40;;;;;;;4.50;3.62;;;;;;;;;;4150621;34;20171;-72
2021/09/30 09:51:10;;;;;;;4.80;2.85;;;;;;;;;;4149308;34;20722;-71
2021/09/30 09:53:36;;;;;;;3.67;2.70;;;;;;;;;;4149020;34;20530;-70
2021/09/30 09:56:13;;;;;;;3.17;2.80;;;;;;;;;;4150665;34;20182;-68
2021/09/30 09:59:04;;;;;;;2.70;2.22;;;;;;;;;;4149286;34;20482;-68
2021/09/30 10:01:44;;;;;;;3.80;2.80;;;;;;;;;;4150436;34;20131;-68
2021/09/30 10:04:11;;;;;;;7.28;3.00;;;;;;;;;;4149077;34;20182;-66
2021/09/30 10:06:38;;;;;;;5.62;2.87;;;;;;;;;;4148891;34;20150;-66
2021/09/30 10:09:06;;;;;;;3.62;2.47;;;;;;;;;;4150530;34;20207;-68
2021/09/30 10:11:33;;;;;;;2.62;2.28;;;;;;;;;;4150233;34;20126;-68
2021/09/30 10:14:00;;;;;;;3.55;2.00;;;;;;;;;;4148939;34;20612;-67
2021/09/30 10:16:27;;;;;;;3.08;1.95;;;;;;;;;;4150335;34;20210;-68
2021/09/30 10:18:57;;;;;;;2.85;2.15;;;;;;;;;;4150095;34;20119;-68
2021/09/30 10:21:24;;;;;;;5.55;2.95;;;;;;;;;;4150248;34;20100;-69
2021/09/30 10:23:52;;;;;;;5.82;2.80;;;;;;;;;;4150108;34;20574;-68
2021/09/30 10:26:24;;;;;;;3.05;2.47;;;;;;;;;;4149043;34;20420;-69
2021/09/30 10:28:50;;;;;;;4.65;3.20;;;;;;;;;;4150059;34;20115;-66
2021/09/30 10:31:20;;;;;;;9.23;3.85;;;;;;;;;;4137616;34;20566;-69
2021/09/30 10:33:46;;;;;;;2.85;2.40;;;;;;;;;;4150045;34;20123;-69
2021/09/30 10:36:32;;;;;;;3.08;2.30;;;;;;;;;;4148658;34;20731;-70
2021/09/30 10:39:24;;;;;;;;;;;;;;;;;;4150364;34;20114;-69
2021/09/30 10:42:01;;;;;;;3.47;2.20;;;;;;;;;;4147476;34;20006;-68
2021/09/30 10:44:33;;;;;;;3.80;2.50;;;;;;;;;;4148649;34;20130;-66
2021/09/30 10:47:00;;;;;;;3.55;2.53;;;;;;;;;;4150042;34;20095;-67
2021/09/30 10:49:42;;;;;;;5.18;2.60;;;;;;;;;;4148588;34;20119;-65
2021/09/30 10:52:25;;;;;;;3.95;2.83;;;;;;;;;;4148971;34;20487;-66
2021/09/30 10:55:14;;;;;;;4.32;3.10;;;;;;;;;;4150226;34;20528;-65
2021/09/30 10:57:47;;;;;;;5.05;2.67;;;;;;;;;;4141381;34;20519;-64
2021/09/30 11:00:34;;;;;;;4.15;3.22;;;;;;;;;;4148766;34;20113;-65
2021/09/30 11:03:00;;;;;;;4.05;2.70;;;;;;;;;;4149777;34;20207;-65
2021/09/30 11:05:29;;;;;;;5.20;2.80;;;;;;;;;;4150164;34;20177;-66
2021/09/30 11:08:20;;;;;;;3.60;2.90;;;;;;;;;;4149896;34;20103;-62
2021/09/30 11:11:17;;;;;;;6.22;2.80;;;;;;;;;;4149853;34;20111;-63
2021/09/30 11:13:55;;;;;;;3.45;2.80;;;;;;;;;;4138709;34;20118;-64
2021/09/30 11:16:33;;;;;;;6.53;2.97;;;;;;;;;;4149657;34;20184;-64
2021/09/30 11:19:00;;;;;;;6.22;4.18;;;;;;;;;;4149642;34;20111;-65
2021/09/30 11:21:31;;;;;;;4.60;3.00;;;;;;;;;;4148404;34;20114;-64
2021/09/30 11:24:31;;;;;;;5.12;3.87;;;;;;;;;;4148003;34;20123;-68
2021/09/30 11:26:58;;;;;;;6.40;4.30;;;;;;;;;;4149608;34;20145;-68
2021/09/30 11:29:28;;;;;;;7.37;4.03;;;;;;;;;;4149625;34;20104;-68
2021/09/30 11:31:54;;;;;;;5.72;3.62;;;;;;;;;;4149457;34;20214;-65
2021/09/30 11:34:22;;;;;;;5.47;2.85;;;;;;;;;;4149797;34;20152;-71
2021/09/30 11:36:48;;;;;;;7.80;3.45;;;;;;;;;;4149579;34;20095;-70
2021/09/30 11:39:14;;;;;;;7.80;3.58;;;;;;;;;;4149422;34;20444;-68
2021/09/30 11:41:42;;;;;;;7.40;3.22;;;;;;;;;;4147987;34;20126;-68
2021/09/30 11:44:16;;;;;;;5.45;2.78;;;;;;;;;;4147970;34;20134;-68
2021/09/30 11:46:42;;;;;;;6.95;3.05;;;;;;;;;;4149671;34;20331;-69
2021/09/30 11:49:13;;;;;;;2.97;2.08;;;;;;;;;;4148070;34;20121;-70
2021/09/30 11:51:41;;;;;;;4.57;2.92;;;;;;;;;;4149686;34;20224;-71
2021/09/30 11:54:11;;;;;;;8.02;3.37;;;;;;;;;;4148166;34;20126;-70
2021/09/30 11:56:45;;;;;;;9.02;4.68;;;;;;;;;;4149735;34;20118;-67
2021/09/30 11:59:11;;;;;;;9.70;5.47;;;;;;;;;;4149499;34;20123;-68
2021/09/30 12:01:44;;;;;;;6.03;4.40;;;;;;;;;;4149583;34;20110;-67
2021/09/30 12:04:10;;;;;;;5.82;3.90;;;;;;;;;;4148305;34;20106;-68
2021/09/30 12:06:46;;;;;;;4.55;3.42;;;;;;;;;;4149350;34;20108;-70
2021/09/30 12:09:16;;;;;;;5.50;3.53;;;;;;;;;;4151246;34;20380;-71
2021/09/30 12:11:59;;;;;;;4.55;3.50;;;;;;;;;;4151464;34;20106;-71
2021/09/30 12:14:43;;;;;;;4.20;3.65;;;;;;;;;;4150043;34;20099;-71
2021/09/30 12:17:14;;;;;;;5.25;4.20;;;;;;;;;;4150007;34;20112;-70
2021/09/30 12:19:44;;;;;;;5.85;3.83;;;;;;;;;;4151336;34;20111;-69
2021/09/30 12:22:21;;;;;;;6.55;3.78;;;;;;;;;;4150111;34;20126;-69
2021/09/30 12:24:49;;;;;;;5.70;3.08;;;;;;;;;;4149996;34;20188;-70
2021/09/30 12:27:15;;;;;;;5.82;3.78;;;;;;;;;;4149972;34;20126;-68
2021/09/30 12:29:45;;;;;;;6.68;3.92;;;;;;;;;;4149974;34;20515;-68
2021/09/30 12:32:15;;;;;;;6.45;4.25;;;;;;;;;;4149813;34;20127;-69
2021/09/30 12:34:52;;;;;;;7.40;4.28;;;;;;;;;;4151151;34;20429;-68
2021/09/30 12:37:49;;;;;;;4.28;3.50;;;;;;;;;;4150088;34;20111;-67
2021/09/30 12:40:19;;;;;;;7.68;3.35;;;;;;;;;;4140030;34;20119;-66
2021/09/30 12:43:08;;;;;;;6.28;4.00;;;;;;;;;;4151434;34;20548;-67
2021/09/30 12:45:36;;;;;;;6.75;3.50;;;;;;;;;;4151004;34;20130;-67
2021/09/30 12:48:10;;;;;;;7.12;3.90;;;;;;;;;;4150993;34;20134;-68
2021/09/30 12:50:47;;;;;;;6.93;4.55;;;;;;;;;;4149836;34;20126;-67
2021/09/30 12:53:14;;;;;;;4.90;3.67;;;;;;;;;;4150964;34;20118;-71
2021/09/30 12:55:40;;;;;;;7.45;3.72;;;;;;;;;;4149879;34;20210;-68
2021/09/30 12:58:15;;;;;;;7.22;3.75;;;;;;;;;;4151053;34;20123;-68
2021/09/30 13:00:41;;;;;;;7.40;4.35;;;;;;;;;;4149530;34;20123;-67
2021/09/30 13:03:12;;;;;;;5.30;4.12;;;;;;;;;;4151083;34;20213;-68
2021/09/30 13:05:46;;;;;;;11.10;5.32;;;;;;;;;;4149559;34;20122;-68
2021/09/30 13:08:12;;;;;;;8.48;4.97;;;;;;;;;;4149729;34;20106;-68
2021/09/30 13:10:38;;;;;;;8.32;4.80;;;;;;;;;;4149391;34;20106;-67
2021/09/30 13:13:22;;;;;;;7.35;4.72;;;;;;;;;;4150984;34;20162;-67
2021/09/30 13:15:49;;;;;;;11.25;5.03;;;;;;;;;;4150652;34;20111;-67
2021/09/30 13:18:16;;;;;;;10.65;5.53;;;;;;;;;;4150328;34;20126;-67
2021/09/30 13:20:43;;;;;;;6.37;4.40;;;;;;;;;;4150332;34;20095;-67
2021/09/30 13:23:09;;;;;;;7.57;3.15;;;;;;;;;;4149364;34;20118;-67
2021/09/30 13:25:35;;;;;;;6.78;3.78;;;;;;;;;;4150650;34;20087;-67
2021/09/30 13:28:06;;;;;;;5.05;3.25;;;;;;;;;;4150792;34;20220;-69
2021/09/30 13:30:33;;;;;;;6.47;3.20;;;;;;;;;;4148520;34;20127;-70
2021/09/30 13:33:01;;;;;;;7.32;3.00;;;;;;;;;;4148567;34;20099;-70
2021/09/30 13:35:30;;;;;;;7.80;3.58;;;;;;;;;;4149261;34;20109;-69
2021/09/30 13:37:57;;;;;;;6.53;3.62;;;;;;;;;;4150671;34;20530;-70
2021/09/30 13:40:23;;;;;;;4.78;3.33;;;;;;;;;;4150559;34;20214;-70
2021/09/30 13:42:49;;;;;;;5.20;3.37;;;;;;;;;;4149337;34;20452;-71
2021/09/30 13:45:19;;;;;;;6.05;3.62;;;;;;;;;;4149226;34;20126;-70
2021/09/30 13:47:44;;;;;;;5.45;3.10;;;;;;;;;;4150398;34;20110;-70
2021/09/30 13:50:14;;;;;;;5.95;3.58;;;;;;;;;;4149069;34;20123;-70
2021/09/30 13:52:41;;;;;;;5.55;3.35;;;;;;;;;;4150524;34;20606;-69
2021/09/30 13:55:08;;;;;;;5.35;3.33;;;;;;;;;;4138159;34;20111;-72
2021/09/30 13:57:34;;;;;;;5.47;3.03;;;;;;;;;;4150459;34;20523;-72
2021/09/30 14:00:02;;;;;;;4.20;3.00;;;;;;;;;;4150493;34;20106;-73
2021/09/30 14:02:28;;;;;;;5.72;3.12;;;;;;;;;;4150512;34;20122;-73
2021/09/30 14:04:55;;;;;;;8.07;3.62;;;;;;;;;;4150706;34;20122;-72
2021/09/30 14:07:20;;;;;;;8.00;3.50;;;;;;;;;;4148902;34;20126;-72
2021/09/30 14:09:47;;;;;;;5.30;3.78;;;;;;;;;;4150500;34;20131;-73
2021/09/30 14:12:13;;;;;;;4.28;3.17;;;;;;;;;;4148863;34;20460;-72
2021/09/30 14:14:39;;;;;;;5.47;3.58;;;;;;;;;;4150610;34;20129;-74
2021/09/30 14:17:06;;;;;;;7.93;4.10;;;;;;;;;;4149774;34;20167;-68
2021/09/30 14:19:32;;;;;;;5.35;3.20;;;;;;;;;;4150130;34;20122;-72
2021/09/30 14:21:58;;;;;;;5.53;3.58;;;;;;;;;;4148762;34;20550;-72
2021/09/30 14:24:30;;;;;;;6.20;3.67;;;;;;;;;;4148861;34;20121;-70
2021/09/30 14:26:58;;;;;;;6.55;3.65;;;;;;;;;;4138471;34;20119;-69
2021/09/30 14:29:24;;;;;;;6.28;3.92;;;;;;;;;;4137720;34;20123;-70
2021/09/30 14:31:49;;;;;;;9.18;4.70;;;;;;;;;;4149732;34;20226;-69
2021/09/30 14:34:15;;;;;;;4.20;3.30;;;;;;;;;;4148885;34;20107;-69
2021/09/30 14:36:41;;;;;;;4.78;3.33;;;;;;;;;;4150187;34;20491;-69
2021/09/30 14:39:07;;;;;;;8.57;4.00;;;;;;;;;;4148841;34;20122;-69
2021/09/30 14:41:34;;;;;;;7.18;3.15;;;;;;;;;;4137588;34;20110;-69
2021/09/30 14:44:00;;;;;;;4.82;3.53;;;;;;;;;;4150390;34;20421;-69
2021/09/30 14:46:26;;;;;;;5.45;3.03;;;;;;;;;;4139696;34;20190;-70
2021/09/30 14:48:52;;;;;;;4.85;2.95;;;;;;;;;;4136545;34;20208;-70
2021/09/30 14:51:18;;;;;;;11.00;3.65;;;;;;;;;;4135222;34;20489;-70
2021/09/30 14:53:43;;;;;;;10.20;3.62;;;;;;;;;;4136541;34;20119;-70
2021/09/30 14:56:09;;;;;;;8.85;3.45;;;;;;;;;;4134978;34;20231;-69
2021/09/30 14:58:36;;;;;;;4.97;3.10;;;;;;;;;;4136528;34;20115;-70
2021/09/30 15:01:03;;;;;;;4.82;3.35;;;;;;;;;;4135245;34;20127;-69
2021/09/30 15:03:29;;;;;;;4.50;2.87;;;;;;;;;;4124203;34;20102;-69
2021/09/30 15:05:55;;;;;;;4.53;2.53;;;;;;;;;;4136543;34;20493;-70
2021/09/30 15:08:21;;;;;;;7.22;2.47;;;;;;;;;;4145891;34;20199;-70
2021/09/30 15:10:47;;;;;;;3.22;2.37;;;;;;;;;;4148521;34;20122;-70
2021/09/30 15:13:13;;;;;;;4.10;2.87;;;;;;;;;;4149649;34;20133;-68
2021/09/30 15:15:39;;;;;;;6.45;3.70;;;;;;;;;;4148208;34;20216;-71
2021/09/30 15:18:11;;;;;;;7.03;3.28;;;;;;;;;;4135810;34;20133;-71
2021/09/30 15:23:15;;;;;;;8.43;4.22;;;;;;;;;;4141788;34;20127;-71
2021/09/30 15:25:43;;;;;;;8.95;4.85;;;;;;;;;;4142944;34;20100;-72
2021/09/30 15:28:11;;;;;;;9.82;5.22;;;;;;;;;;4166702;34;20134;-72
2021/09/30 15:30:40;;;;;;;12.35;5.40;;;;;;;;;;4162997;34;20551;-69
2021/09/30 15:33:07;;;;;;;9.05;5.43;;;;;;;;;;4149378;34;20228;-70
2021/09/30 15:35:33;;;;;;;11.55;5.68;;;;;;;;;;4149033;34;20175;-70
2021/09/30 15:38:00;;;;;;;9.93;5.30;;;;;;;;;;4149553;34;20127;-68
2021/09/30 15:40:26;;;;;;;8.30;5.78;;;;;;;;;;4149262;34;20103;-68
2021/09/30 15:42:52;;;;;;;9.52;5.05;;;;;;;;;;4148682;34;20119;-68
2021/09/30 15:45:19;;;;;;;5.85;4.10;;;;;;;;;;4159626;34;20594;-67
2021/09/30 15:47:45;;;;;;;5.85;4.28;;;;;;;;;;4170385;34;20122;-68
2021/09/30 15:50:11;;;;;;;5.75;3.78;;;;;;;;;;4170593;34;20205;-67
2021/09/30 15:52:37;;;;;;;5.03;3.85;;;;;;;;;;4168560;34;20127;-66
2021/09/30 15:55:04;;;;;;;4.97;3.78;;;;;;;;;;4163393;34;20229;-66
2021/09/30 15:57:30;;;;;;;4.97;3.87;;;;;;;;;;4146426;34;20103;-66
2021/09/30 15:59:56;;;;;;;6.57;4.28;;;;;;;;;;4149438;34;20110;-68
2021/09/30 16:02:22;;;;;;;7.70;4.10;;;;;;;;;;4170599;34;20118;-67
2021/09/30 16:04:48;;;;;;;4.80;3.47;;;;;;;;;;4149349;34;20142;-67
2021/09/30 16:07:14;;;;;;;4.35;3.53;;;;;;;;;;4138379;34;20104;-67
2021/09/30 16:09:40;;;;;;;4.00;3.22;;;;;;;;;;4135727;34;20138;-65
2021/09/30 16:12:06;;;;;;;5.55;3.62;;;;;;;;;;4135777;34;20471;-67
2021/09/30 16:14:34;;;;;;;4.78;3.00;;;;;;;;;;4135792;34;20124;-65
2021/09/30 16:17:01;;;;;;;5.60;2.83;;;;;;;;;;4135710;34;20115;-64
2021/09/30 16:19:27;;;;;;;6.60;3.45;;;;;;;;;;4145999;34;20111;-65
2021/09/30 16:21:53;;;;;;;10.55;5.10;;;;;;;;;;4148971;34;20123;-65
2021/09/30 16:24:19;;;;;;;8.20;3.30;;;;;;;;;;4149235;34;20130;-65
2021/09/30 16:26:45;;;;;;;4.30;3.30;;;;;;;;;;4166930;34;20538;-64
2021/09/30 16:29:11;;;;;;;6.28;3.42;;;;;;;;;;4149175;34;20542;-65
2021/09/30 16:31:37;;;;;;;4.35;3.30;;;;;;;;;;4149164;34;20118;-65
2021/09/30 16:34:06;;;;;;;9.30;3.83;;;;;;;;;;4149311;34;20606;-65
2021/09/30 16:36:32;;;;;;;4.82;3.28;;;;;;;;;;4148641;34;20110;-61
2021/09/30 16:38:59;;;;;;;3.92;3.12;;;;;;;;;;4147685;34;20099;-61
2021/09/30 16:41:26;;;;;;;9.00;3.60;;;;;;;;;;4149025;34;20207;-65
2021/09/30 16:43:52;;;;;;;4.53;3.17;;;;;;;;;;4136712;34;20115;-65
2021/09/30 16:46:20;;;;;;;7.78;3.72;;;;;;;;;;4146621;34;20452;-67
2021/09/30 16:48:48;;;;;;;3.65;2.83;;;;;;;;;;4140209;34;20267;-67
2021/09/30 16:51:14;;;;;;;5.25;3.25;;;;;;;;;;4162758;34;20123;-67
2021/09/30 16:53:41;;;;;;;4.95;3.25;;;;;;;;;;4142995;34;20087;-68
2021/09/30 16:56:09;;;;;;;10.73;3.62;;;;;;;;;;4142247;34;20203;-66
2021/09/30 16:58:36;;;;;;;4.90;3.22;;;;;;;;;;4155961;34;20153;-67
2021/09/30 17:01:03;;;;;;;5.57;3.80;;;;;;;;;;4143021;34;20228;-66
2021/09/30 17:03:29;;;;;;;4.60;3.53;;;;;;;;;;4147239;34;20129;-68
2021/09/30 17:05:55;;;;;;;4.72;3.37;;;;;;;;;;4164478;34;20535;-68
2021/09/30 17:08:21;;;;;;;5.55;3.53;;;;;;;;;;4141369;34;20123;-69
2021/09/30 17:10:47;;;;;;;7.65;3.50;;;;;;;;;;4150552;34;20511;-69
2021/09/30 17:13:13;;;;;;;10.57;4.00;;;;;;;;;;4138510;34;20138;-70
2021/09/30 17:15:39;;;;;;;6.32;3.28;;;;;;;;;;4143186;34;20150;-70
2021/09/30 17:18:06;;;;;;;5.55;3.40;;;;;;;;;;4165453;28;20459;-67
2021/09/30 17:20:34;;;;;;;7.18;3.92;;;;;;;;;;4151003;34;20114;-67
2021/09/30 17:23:00;;;;;;;8.00;3.72;;;;;;;;;;4151151;34;20106;-67
2021/09/30 17:25:27;;;;;;;4.35;3.62;;;;;;;;;;4150840;34;20117;-63
2021/09/30 17:27:53;;;;;;;9.35;4.25;;;;;;;;;;4149460;34;20159;-63
2021/09/30 17:30:23;;;;;;;10.25;5.05;;;;;;;;;;4138660;34;20500;-63
2021/09/30 17:32:49;;;;;;;7.75;5.25;;;;;;;;;;4135864;34;20126;-63
2021/09/30 17:35:15;;;;;;;9.07;4.93;;;;;;;;;;4124955;34;20099;-63
2021/09/30 17:37:42;;;;;;;10.18;5.60;;;;;;;;;;4124945;34;20109;-63
2021/09/30 17:40:12;;;;;;;9.18;5.90;;;;;;;;;;4136094;34;20131;-63
2021/09/30 17:42:39;;;;;;;8.52;5.75;;;;;;;;;;4134815;34;20135;-63
2021/09/30 17:45:06;;;;;;;12.82;6.37;;;;;;;;;;4130336;34;20115;-63
2021/09/30 17:47:32;;;;;;;11.30;5.68;;;;;;;;;;4124530;34;20674;-63
2021/09/30 17:49:59;;;;;;;9.68;5.80;;;;;;;;;;4126201;34;20115;-63